createdAt,value
2023-02-21T00:29:25.698Z,0.91
2023-02-21T00:59:25.609Z,0.92
2023-02-21T01:29:25.402Z,0.54
2023-02-21T01:59:25.280Z,0.37
2023-02-21T02:29:25.419Z,0.36
2023-02-21T02:59:25.440Z,0.09
2023-02-21T03:29:25.148Z,-0.27
2023-02-21T03:59:25.582Z,-0.44
2023-02-21T04:29:25.143Z,-0.62
2023-02-21T05:29:25.092Z,-0.91
2023-02-21T05:59:25.164Z,-0.9700001
2023-02-21T06:29:24.998Z,-1.14
2023-02-21T06:59:25.811Z,-1.09
2023-02-21T07:29:25.533Z,-0.4
2023-02-21T07:59:26.223Z,1.16
2023-02-21T08:29:25.097Z,3.15
2023-02-21T08:59:25.003Z,5.24
2023-02-21T09:29:34.197Z,7.57
2023-02-21T09:59:26.130Z,11.12
2023-02-21T10:29:25.055Z,13.01
2023-02-21T10:59:24.878Z,13.28
2023-02-21T11:29:25.512Z,13.77
2023-02-21T12:29:24.454Z,13.72
2023-02-21T13:29:24.456Z,15.65
2023-02-21T13:59:24.500Z,16.66
2023-02-21T14:29:25.205Z,15.94
2023-02-21T14:59:24.352Z,15.92
2023-02-21T15:59:24.628Z,15.46
2023-02-21T16:29:30.299Z,13.61
2023-02-21T16:59:24.516Z,11.98
2023-02-21T17:29:24.795Z,10.31
2023-02-21T17:59:24.208Z,8.93
2023-02-21T18:29:24.390Z,7.99
2023-02-21T18:59:24.216Z,6.85
2023-02-21T19:29:23.836Z,5.88
2023-02-21T19:59:24.196Z,5.34
2023-02-21T20:29:23.926Z,4.8
2023-02-21T20:59:23.989Z,4.0
2023-02-21T21:29:24.534Z,3.4
2023-02-21T21:59:24.116Z,3.0
2023-02-21T22:29:23.647Z,2.48
2023-02-21T23:29:23.791Z,2.16
2023-02-21T23:59:24.300Z,1.54
